Time;durP1;ratioP1;P1;durP2;ratioP2;P2;SDS_P1;SDS_P2;PMS_P1;PMS_P2;Temp;Humidity;BMP_temperature;BMP_pressure;BME280_temperature;BME280_humidity;BME280_pressure;Samples;Min_cycle;Max_cycle;Signal;HPM_P1;HPM_P2
2024/04/16 00:01:01;;;;;;;2.90;2.70;;;;;;;;;;5590960;25;20239;-78
2024/04/16 00:03:34;;;;;;;3.67;3.40;;;;;;;;;;5579617;25;20519;-79
2024/04/16 00:05:59;;;;;;;3.60;3.30;;;;;;;;;;5577734;25;20223;-79
2024/04/16 00:08:28;;;;;;;3.50;3.30;;;;;;;;;;5591778;25;20519;-79
2024/04/16 00:10:58;;;;;;;3.20;3.00;;;;;;;;;;5584277;25;20270;-79
2024/04/16 00:13:26;;;;;;;2.83;2.63;;;;;;;;;;5594949;25;20530;-79
2024/04/16 00:15:52;;;;;;;2.90;2.70;;;;;;;;;;5576566;25;20509;-79
2024/04/16 00:18:20;;;;;;;3.07;2.83;;;;;;;;;;5593263;25;20522;-79
2024/04/16 00:20:49;;;;;;;2.70;2.57;;;;;;;;;;5585756;25;20276;-79
2024/04/16 00:23:17;;;;;;;3.30;3.10;;;;;;;;;;5579193;25;20520;-80
2024/04/16 00:25:42;;;;;;;3.50;3.30;;;;;;;;;;5597151;25;20450;-80
2024/04/16 00:28:11;;;;;;;3.40;3.20;;;;;;;;;;5590286;25;20982;-79
2024/04/16 00:30:36;;;;;;;3.40;3.20;;;;;;;;;;5582769;25;20773;-79
2024/04/16 00:33:05;;;;;;;8.40;4.30;;;;;;;;;;5593927;25;20464;-77
2024/04/16 00:35:30;;;;;;;3.33;3.13;;;;;;;;;;5587645;25;20242;-80
2024/04/16 00:38:01;;;;;;;3.40;3.20;;;;;;;;;;5605095;25;20571;-80
2024/04/16 00:40:27;;;;;;;3.30;3.00;;;;;;;;;;5598075;25;20245;-80
2024/04/16 00:42:55;;;;;;;3.80;3.60;;;;;;;;;;5565107;25;20701;-80
2024/04/16 00:45:20;;;;;;;4.40;4.00;;;;;;;;;;5602503;25;21109;-80
2024/04/16 00:47:48;;;;;;;3.50;3.30;;;;;;;;;;5597330;25;20456;-80
2024/04/16 00:50:14;;;;;;;3.80;3.50;;;;;;;;;;5579758;25;20228;-80
2024/04/16 00:52:43;;;;;;;3.53;3.23;;;;;;;;;;5585073;25;20521;-80
2024/04/16 00:55:11;;;;;;;3.97;3.70;;;;;;;;;;5600319;25;20237;-81
2024/04/16 00:57:40;;;;;;;4.00;3.70;;;;;;;;;;5582874;25;21089;-80
2024/04/16 01:00:06;;;;;;;4.00;3.70;;;;;;;;;;5599550;25;20462;-79
2024/04/16 01:02:36;;;;;;;4.00;3.70;;;;;;;;;;5585540;25;21333;-80
2024/04/16 01:05:01;;;;;;;4.37;4.07;;;;;;;;;;5590898;25;20534;-80
2024/04/16 01:07:29;;;;;;;6.60;5.97;;;;;;;;;;5579925;25;20475;-80
2024/04/16 01:09:55;;;;;;;6.00;5.60;;;;;;;;;;5591969;25;20231;-80
2024/04/16 01:12:26;;;;;;;6.30;5.60;;;;;;;;;;5582198;25;20510;-80
2024/04/16 01:14:51;;;;;;;7.13;6.53;;;;;;;;;;5571322;25;20652;-80
2024/04/16 01:17:19;;;;;;;5.90;5.40;;;;;;;;;;5582361;25;20463;-81
2024/04/16 01:19:46;;;;;;;7.93;7.17;;;;;;;;;;5572824;25;20291;-80
2024/04/16 01:22:14;;;;;;;7.07;6.37;;;;;;;;;;5595071;25;20550;-79
2024/04/16 01:24:42;;;;;;;8.90;8.00;;;;;;;;;;5566276;25;21130;-79
2024/04/16 01:27:10;;;;;;;9.87;8.90;;;;;;;;;;5588963;25;20592;-79
2024/04/16 01:29:36;;;;;;;11.20;8.13;;;;;;;;;;5590800;25;20535;-78
2024/04/16 01:32:04;;;;;;;8.83;8.03;;;;;;;;;;5578820;25;20540;-78
2024/04/16 01:34:30;;;;;;;10.60;9.57;;;;;;;;;;5573233;25;20285;-80
2024/04/16 01:36:58;;;;;;;9.63;8.53;;;;;;;;;;5584947;25;20452;-79
2024/04/16 01:39:23;;;;;;;11.93;9.60;;;;;;;;;;5606039;25;20316;-78
2024/04/16 01:41:54;;;;;;;11.20;9.30;;;;;;;;;;5591830;25;20466;-81
2024/04/16 01:44:20;;;;;;;11.93;9.13;;;;;;;;;;5588120;25;20683;-80
2024/04/16 01:46:48;;;;;;;16.37;10.80;;;;;;;;;;5584091;25;20460;-80
2024/04/16 01:49:13;;;;;;;13.93;10.30;;;;;;;;;;5580415;25;20799;-80
2024/04/16 01:51:41;;;;;;;13.20;10.90;;;;;;;;;;5608222;25;20520;-79
2024/04/16 01:54:07;;;;;;;11.67;9.47;;;;;;;;;;5594724;25;20258;-81
2024/04/16 01:56:35;;;;;;;11.97;8.93;;;;;;;;;;5573848;25;20501;-80
2024/04/16 01:59:03;;;;;;;12.50;9.30;;;;;;;;;;5598022;25;20272;-80
2024/04/16 02:01:32;;;;;;;16.37;9.20;;;;;;;;;;5596749;25;20566;-80
2024/04/16 02:03:57;;;;;;;12.63;9.73;;;;;;;;;;5585621;25;20515;-80
2024/04/16 02:06:25;;;;;;;10.00;8.00;;;;;;;;;;5599800;25;20452;-80
2024/04/16 02:08:52;;;;;;;11.30;7.90;;;;;;;;;;5581886;25;20228;-81
2024/04/16 02:11:20;;;;;;;11.40;8.53;;;;;;;;;;5570536;25;20508;-80
2024/04/16 02:13:46;;;;;;;10.30;7.10;;;;;;;;;;5594902;25;21045;-81
2024/04/16 02:16:17;;;;;;;9.97;7.10;;;;;;;;;;5594717;25;20964;-80
2024/04/16 02:18:42;;;;;;;11.93;6.70;;;;;;;;;;5599795;25;20228;-81
2024/04/16 02:21:10;;;;;;;9.40;6.10;;;;;;;;;;5600094;25;20466;-81
2024/04/16 02:23:36;;;;;;;11.70;6.17;;;;;;;;;;5590955;25;20479;-81
2024/04/16 02:26:04;;;;;;;9.97;5.80;;;;;;;;;;5606058;25;20471;-81
2024/04/16 02:28:29;;;;;;;9.30;5.03;;;;;;;;;;5588545;25;20242;-81
2024/04/16 02:30:58;;;;;;;12.00;5.00;;;;;;;;;;5597016;25;20466;-81
2024/04/16 02:33:26;;;;;;;8.03;5.00;;;;;;;;;;5579494;25;20319;-81
2024/04/16 02:35:55;;;;;;;12.30;6.80;;;;;;;;;;5573125;25;21046;-81
2024/04/16 02:38:21;;;;;;;8.17;5.33;;;;;;;;;;5594916;25;20458;-81
2024/04/16 02:40:49;;;;;;;12.37;5.13;;;;;;;;;;5607017;25;20477;-81
2024/04/16 02:43:14;;;;;;;6.20;5.03;;;;;;;;;;5594055;25;20276;-81
2024/04/16 02:45:42;;;;;;;5.00;4.37;;;;;;;;;;5597668;25;20470;-81
2024/04/16 02:48:08;;;;;;;9.70;5.03;;;;;;;;;;5578337;25;20235;-81
2024/04/16 02:50:39;;;;;;;14.17;5.20;;;;;;;;;;5578031;25;20498;-80
2024/04/16 02:53:04;;;;;;;9.00;5.50;;;;;;;;;;5582084;25;20318;-81
2024/04/16 02:55:33;;;;;;;8.23;4.67;;;;;;;;;;5591099;25;21386;-81
2024/04/16 02:57:58;;;;;;;7.93;5.70;;;;;;;;;;5583544;25;20227;-81
2024/04/16 03:00:27;;;;;;;9.23;4.50;;;;;;;;;;5593328;25;20450;-80
2024/04/16 03:02:52;;;;;;;8.33;4.50;;;;;;;;;;5586256;25;20223;-80
2024/04/16 03:05:20;;;;;;;10.60;5.10;;;;;;;;;;5600630;25;20520;-81
2024/04/16 03:07:48;;;;;;;6.00;5.13;;;;;;;;;;5575083;25;20232;-81
2024/04/16 03:10:17;;;;;;;11.90;6.80;;;;;;;;;;5580961;25;20505;-81
2024/04/16 03:12:42;;;;;;;11.93;5.87;;;;;;;;;;5594073;25;20459;-80
2024/04/16 03:15:11;;;;;;;6.07;4.70;;;;;;;;;;5588731;25;20525;-81
2024/04/16 03:17:37;;;;;;;5.77;5.17;;;;;;;;;;5584155;25;20231;-81
2024/04/16 03:20:06;;;;;;;9.53;5.27;;;;;;;;;;5579667;25;20447;-80
2024/04/16 03:22:32;;;;;;;7.47;4.27;;;;;;;;;;5600886;25;20464;-80
2024/04/16 03:25:03;;;;;;;9.70;4.70;;;;;;;;;;5600705;25;20514;-79
2024/04/16 03:27:28;;;;;;;5.80;4.20;;;;;;;;;;5572826;25;20232;-80
2024/04/16 03:29:56;;;;;;;6.37;4.27;;;;;;;;;;5602702;25;20997;-83
2024/04/16 03:32:22;;;;;;;10.57;4.77;;;;;;;;;;5601925;25;20222;-83
2024/04/16 03:35:09;;;;;;;5.00;4.47;;;;;;;;;;5584424;25;20530;-83
2024/04/16 03:37:37;;;;;;;5.40;4.60;;;;;;;;;;5589552;25;20323;-81
2024/04/16 03:40:09;;;;;;;3.70;3.40;;;;;;;;;;5596333;25;20471;-78
2024/04/16 03:42:37;;;;;;;5.70;4.17;;;;;;;;;;5588830;25;20507;-79
2024/04/16 03:45:03;;;;;;;9.03;5.20;;;;;;;;;;5594676;25;20511;-80
2024/04/16 03:47:31;;;;;;;4.63;3.97;;;;;;;;;;5588827;25;20789;-81
2024/04/16 03:49:57;;;;;;;6.13;4.00;;;;;;;;;;5604985;25;20234;-80
2024/04/16 03:52:25;;;;;;;9.00;4.40;;;;;;;;;;5597935;25;20848;-80
2024/04/16 03:54:50;;;;;;;7.67;4.10;;;;;;;;;;5599846;25;20281;-79
2024/04/16 03:57:21;;;;;;;7.57;4.63;;;;;;;;;;5591481;25;20456;-80
2024/04/16 04:02:33;;;;;;;4.83;4.43;;;;;;;;;;5587877;25;20536;-80
2024/04/16 04:05:01;;;;;;;5.33;4.67;;;;;;;;;;5578536;25;20508;-81
2024/04/16 04:07:27;;;;;;;6.30;5.17;;;;;;;;;;5589540;25;20462;-80
2024/04/16 04:09:55;;;;;;;6.00;5.00;;;;;;;;;;5583894;25;21243;-80
2024/04/16 04:12:23;;;;;;;6.53;3.90;;;;;;;;;;5577365;25;20661;-82
2024/04/16 04:14:51;;;;;;;13.93;4.20;;;;;;;;;;5592287;25;20523;-79
2024/04/16 04:17:17;;;;;;;6.63;3.83;;;;;;;;;;5588382;25;20526;-79
2024/04/16 04:19:45;;;;;;;11.30;4.30;;;;;;;;;;5577767;25;20460;-80
2024/04/16 04:22:11;;;;;;;5.10;4.60;;;;;;;;;;5582915;25;20234;-79
2024/04/16 04:24:39;;;;;;;8.20;4.70;;;;;;;;;;5593218;25;20526;-79
2024/04/16 04:27:05;;;;;;;5.40;4.57;;;;;;;;;;5592504;25;20238;-81
2024/04/16 04:29:36;;;;;;;10.30;5.67;;;;;;;;;;5591819;25;20460;-81
2024/04/16 04:32:02;;;;;;;7.40;5.40;;;;;;;;;;5579337;25;20235;-81
2024/04/16 04:34:30;;;;;;;5.70;5.20;;;;;;;;;;5584519;25;20529;-82
2024/04/16 04:36:55;;;;;;;9.20;5.40;;;;;;;;;;5589927;25;20234;-81
2024/04/16 04:39:23;;;;;;;9.50;6.47;;;;;;;;;;5587573;25;20460;-80
2024/04/16 04:41:49;;;;;;;9.10;5.90;;;;;;;;;;5588511;25;20270;-80
2024/04/16 04:44:17;;;;;;;9.23;6.87;;;;;;;;;;5578967;25;20467;-82
2024/04/16 04:46:45;;;;;;;7.53;6.17;;;;;;;;;;5593381;25;20235;-80
2024/04/16 04:49:13;;;;;;;10.47;7.67;;;;;;;;;;5583776;25;20523;-81
2024/04/16 04:51:39;;;;;;;7.53;6.57;;;;;;;;;;5585217;25;20460;-82
2024/04/16 04:54:07;;;;;;;6.30;5.80;;;;;;;;;;5595087;25;20522;-81
2024/04/16 04:56:33;;;;;;;8.40;6.77;;;;;;;;;;5581504;25;20263;-81
2024/04/16 04:59:01;;;;;;;7.30;6.70;;;;;;;;;;5579932;25;21109;-81
2024/04/16 05:01:26;;;;;;;8.83;6.73;;;;;;;;;;5573631;25;20382;-81
2024/04/16 05:03:57;;;;;;;7.27;6.57;;;;;;;;;;5582648;25;20925;-81
2024/04/16 05:06:22;;;;;;;7.57;6.60;;;;;;;;;;5605276;25;20554;-81
2024/04/16 05:08:51;;;;;;;8.70;6.30;;;;;;;;;;5580580;25;20528;-81
2024/04/16 05:11:16;;;;;;;7.73;6.97;;;;;;;;;;5576003;25;20571;-80
2024/04/16 05:13:44;;;;;;;7.20;6.50;;;;;;;;;;5594038;25;20519;-80
2024/04/16 05:16:10;;;;;;;9.17;8.20;;;;;;;;;;5585188;25;20226;-82
2024/04/16 05:18:38;;;;;;;8.23;7.43;;;;;;;;;;5591044;25;20504;-82
2024/04/16 05:21:06;;;;;;;7.33;6.73;;;;;;;;;;5592644;25;20268;-82
2024/04/16 05:23:35;;;;;;;7.33;6.73;;;;;;;;;;5584859;25;20515;-82
2024/04/16 05:26:02;;;;;;;7.30;6.60;;;;;;;;;;5594749;25;20543;-81
2024/04/16 05:28:30;;;;;;;8.37;7.57;;;;;;;;;;5596811;25;20508;-84
2024/04/16 05:30:57;;;;;;;7.87;7.27;;;;;;;;;;5593724;25;20511;-82
2024/04/16 05:33:25;;;;;;;8.63;7.83;;;;;;;;;;5577818;25;20562;-80
2024/04/16 05:35:51;;;;;;;10.03;9.00;;;;;;;;;;5596977;25;20524;-81
2024/04/16 05:38:22;;;;;;;7.87;7.07;;;;;;;;;;5586932;25;20462;-79
2024/04/16 05:40:47;;;;;;;9.03;8.13;;;;;;;;;;5587745;25;20271;-80
2024/04/16 05:43:15;;;;;;;10.70;8.77;;;;;;;;;;5585529;25;20563;-80
2024/04/16 05:45:41;;;;;;;9.57;8.73;;;;;;;;;;5575788;25;20242;-80
2024/04/16 05:48:09;;;;;;;8.70;7.90;;;;;;;;;;5597062;25;20542;-80
2024/04/16 05:50:35;;;;;;;11.03;8.70;;;;;;;;;;5589720;25;20227;-81
2024/04/16 05:53:03;;;;;;;10.10;9.20;;;;;;;;;;5580345;25;20507;-80
2024/04/16 05:55:31;;;;;;;9.60;8.80;;;;;;;;;;5574679;25;20731;-80
2024/04/16 05:58:00;;;;;;;11.80;8.20;;;;;;;;;;5573462;25;20464;-81
2024/04/16 06:00:25;;;;;;;9.63;7.93;;;;;;;;;;5593536;25;20514;-81
2024/04/16 06:02:53;;;;;;;9.00;8.20;;;;;;;;;;5592609;25;20462;-80
2024/04/16 06:05:19;;;;;;;9.60;8.77;;;;;;;;;;5602349;25;20268;-81
2024/04/16 06:07:47;;;;;;;9.30;7.73;;;;;;;;;;5585871;25;20466;-81
2024/04/16 06:10:13;;;;;;;8.60;7.80;;;;;;;;;;5560447;25;20278;-79
2024/04/16 06:12:43;;;;;;;9.43;8.50;;;;;;;;;;5591606;25;20470;-80
2024/04/16 06:15:09;;;;;;;10.30;9.37;;;;;;;;;;5596481;25;20226;-79
2024/04/16 06:17:38;;;;;;;8.40;7.70;;;;;;;;;;5580987;25;20518;-80
2024/04/16 06:20:04;;;;;;;8.93;7.97;;;;;;;;;;5590702;25;20228;-79
2024/04/16 06:22:32;;;;;;;13.57;8.60;;;;;;;;;;5589460;25;20964;-79
2024/04/16 06:24:57;;;;;;;9.67;8.70;;;;;;;;;;5598119;25;20458;-80
2024/04/16 06:27:25;;;;;;;6.97;6.27;;;;;;;;;;5586607;25;20447;-79
2024/04/16 06:29:54;;;;;;;9.47;8.47;;;;;;;;;;5586737;25;20302;-79
2024/04/16 06:32:22;;;;;;;8.33;7.53;;;;;;;;;;5591835;25;21014;-80
2024/04/16 06:34:47;;;;;;;9.23;8.20;;;;;;;;;;5581180;25;20474;-80
2024/04/16 06:37:15;;;;;;;7.80;7.00;;;;;;;;;;5583744;25;20506;-81
2024/04/16 06:39:41;;;;;;;8.40;7.70;;;;;;;;;;5589514;25;20276;-80
2024/04/16 06:42:09;;;;;;;8.40;7.70;;;;;;;;;;5597397;25;20464;-80
2024/04/16 06:44:35;;;;;;;8.37;7.67;;;;;;;;;;5577981;25;20232;-80
2024/04/16 06:47:06;;;;;;;8.33;7.63;;;;;;;;;;5576963;25;20535;-80
2024/04/16 06:49:31;;;;;;;9.17;8.27;;;;;;;;;;5570624;25;20233;-81
2024/04/16 06:51:59;;;;;;;10.23;8.13;;;;;;;;;;5580987;25;20974;-81
2024/04/16 06:54:25;;;;;;;11.20;8.53;;;;;;;;;;5584794;25;20231;-81
2024/04/16 06:56:53;;;;;;;9.43;8.50;;;;;;;;;;5589751;25;20464;-79
2024/04/16 06:59:21;;;;;;;9.13;8.33;;;;;;;;;;5586487;25;20286;-79
2024/04/16 07:01:47;;;;;;;8.57;7.90;;;;;;;;;;5585358;25;20470;-80
2024/04/16 07:04:18;;;;;;;9.03;8.23;;;;;;;;;;5599506;25;20514;-80
2024/04/16 07:06:43;;;;;;;9.03;8.40;;;;;;;;;;5575361;25;20274;-79
2024/04/16 07:09:12;;;;;;;11.83;8.73;;;;;;;;;;5578646;25;20464;-82
2024/04/16 07:11:38;;;;;;;9.97;9.00;;;;;;;;;;5591990;25;20305;-82
2024/04/16 07:14:06;;;;;;;9.03;8.33;;;;;;;;;;5580551;25;20594;-81
2024/04/16 07:16:32;;;;;;;7.03;6.53;;;;;;;;;;5595401;25;20462;-82
2024/04/16 07:19:00;;;;;;;7.80;7.10;;;;;;;;;;5595258;25;20563;-81
2024/04/16 07:21:28;;;;;;;8.60;7.93;;;;;;;;;;5583534;25;20275;-80
2024/04/16 07:23:56;;;;;;;8.97;7.10;;;;;;;;;;5582719;25;20475;-81
2024/04/16 07:26:22;;;;;;;7.43;6.80;;;;;;;;;;5588440;25;20512;-77
2024/04/16 07:28:50;;;;;;;6.53;6.03;;;;;;;;;;5582294;25;20483;-77
2024/04/16 07:31:16;;;;;;;8.67;7.60;;;;;;;;;;5591240;25;20215;-77
2024/04/16 07:33:44;;;;;;;8.00;7.50;;;;;;;;;;5587741;25;20536;-77
2024/04/16 07:36:10;;;;;;;7.43;6.93;;;;;;;;;;5562531;25;20815;-78
2024/04/16 07:38:41;;;;;;;7.03;6.60;;;;;;;;;;5582932;25;20534;-79
2024/04/16 07:41:07;;;;;;;6.50;5.90;;;;;;;;;;5583789;25;20709;-78
2024/04/16 07:43:37;;;;;;;7.50;7.00;;;;;;;;;;5575533;25;20536;-77
2024/04/16 07:46:03;;;;;;;6.30;5.70;;;;;;;;;;5587109;25;20269;-77
2024/04/16 07:48:31;;;;;;;6.40;5.87;;;;;;;;;;5587473;25;20482;-77
2024/04/16 07:50:56;;;;;;;6.70;5.87;;;;;;;;;;5599373;25;20548;-78
2024/04/16 07:53:25;;;;;;;6.10;5.70;;;;;;;;;;5597770;25;20470;-77
2024/04/16 07:55:53;;;;;;;6.93;6.33;;;;;;;;;;5563182;25;20269;-76
2024/04/16 07:58:21;;;;;;;7.90;6.60;;;;;;;;;;5591965;25;20954;-75
2024/04/16 08:00:49;;;;;;;6.70;6.10;;;;;;;;;;5580681;25;20537;-77
2024/04/16 08:03:15;;;;;;;7.63;5.60;;;;;;;;;;5595533;25;20564;-77
2024/04/16 08:05:43;;;;;;;6.40;6.00;;;;;;;;;;5591723;25;20463;-76
2024/04/16 08:08:09;;;;;;;6.33;5.90;;;;;;;;;;5583547;25;20243;-77
2024/04/16 08:10:37;;;;;;;6.30;5.80;;;;;;;;;;5583222;25;20567;-80
2024/04/16 08:13:06;;;;;;;6.63;5.83;;;;;;;;;;5598923;25;20226;-77
2024/04/16 08:15:34;;;;;;;6.57;6.07;;;;;;;;;;5595706;25;20472;-78
2024/04/16 08:18:00;;;;;;;6.33;5.90;;;;;;;;;;5582865;25;20468;-77
2024/04/16 08:20:29;;;;;;;6.70;6.20;;;;;;;;;;5585706;25;20580;-78
2024/04/16 08:22:55;;;;;;;7.70;7.03;;;;;;;;;;5565967;25;20265;-75
2024/04/16 08:25:23;;;;;;;7.13;6.53;;;;;;;;;;5590206;25;20471;-78
2024/04/16 08:27:49;;;;;;;6.60;6.20;;;;;;;;;;5572800;25;20608;-75
2024/04/16 08:30:20;;;;;;;6.87;6.37;;;;;;;;;;5579041;25;20448;-77
2024/04/16 08:32:46;;;;;;;6.47;6.00;;;;;;;;;;5587700;25;20337;-76
2024/04/16 08:35:25;;;;;;;6.40;5.60;;;;;;;;;;5570883;25;20466;-76
2024/04/16 08:37:50;;;;;;;9.03;6.27;;;;;;;;;;5587020;25;20234;-81
2024/04/16 08:40:19;;;;;;;7.10;6.60;;;;;;;;;;5592188;25;20468;-81
2024/04/16 08:42:45;;;;;;;6.73;6.30;;;;;;;;;;5587399;25;20227;-80
2024/04/16 08:45:13;;;;;;;6.73;6.10;;;;;;;;;;5594820;25;20515;-79
2024/04/16 08:47:42;;;;;;;6.07;5.60;;;;;;;;;;5583790;25;20471;-82
2024/04/16 08:50:10;;;;;;;8.03;5.80;;;;;;;;;;5597328;25;20946;-83
2024/04/16 08:52:37;;;;;;;6.10;5.80;;;;;;;;;;5590421;25;20486;-81
2024/04/16 08:55:05;;;;;;;5.97;5.50;;;;;;;;;;5600289;25;20496;-79
2024/04/16 08:57:32;;;;;;;5.30;4.90;;;;;;;;;;5585142;25;20540;-81
2024/04/16 09:00:00;;;;;;;5.07;4.73;;;;;;;;;;5585431;25;20460;-82
2024/04/16 09:02:26;;;;;;;5.33;5.03;;;;;;;;;;5574488;25;20487;-80
2024/04/16 09:04:59;;;;;;;4.90;4.60;;;;;;;;;;5581568;25;20957;-79
2024/04/16 09:07:25;;;;;;;5.23;4.80;;;;;;;;;;5593562;25;20462;-80
2024/04/16 09:09:54;;;;;;;4.47;4.17;;;;;;;;;;5596008;25;21047;-80
2024/04/16 09:12:19;;;;;;;5.80;5.50;;;;;;;;;;5585556;25;20454;-78
2024/04/16 09:14:47;;;;;;;5.70;5.40;;;;;;;;;;5585006;25;20514;-79
2024/04/16 09:17:13;;;;;;;6.00;5.70;;;;;;;;;;5578474;25;20281;-79
2024/04/16 09:19:42;;;;;;;6.87;6.33;;;;;;;;;;5581400;25;20464;-78
2024/04/16 09:22:10;;;;;;;6.53;6.13;;;;;;;;;;5598514;25;20941;-80
2024/04/16 09:24:38;;;;;;;6.87;6.47;;;;;;;;;;5590673;25;20513;-79
2024/04/16 09:27:07;;;;;;;6.03;5.73;;;;;;;;;;5585248;25;20523;-79
2024/04/16 09:29:36;;;;;;;6.03;5.73;;;;;;;;;;5584844;25;20518;-76
2024/04/16 09:32:02;;;;;;;6.30;5.90;;;;;;;;;;5580520;25;20491;-79
2024/04/16 09:34:31;;;;;;;6.50;6.10;;;;;;;;;;5581142;25;20600;-79
2024/04/16 09:36:56;;;;;;;6.23;5.77;;;;;;;;;;5583961;25;20475;-79
2024/04/16 09:39:27;;;;;;;5.30;5.00;;;;;;;;;;5583645;25;20469;-80
2024/04/16 09:41:53;;;;;;;5.50;5.20;;;;;;;;;;5583083;25;20235;-79
2024/04/16 09:44:22;;;;;;;5.63;5.33;;;;;;;;;;5597903;25;20553;-78
2024/04/16 09:46:47;;;;;;;5.37;5.00;;;;;;;;;;5578934;25;20509;-81
2024/04/16 09:49:16;;;;;;;5.50;5.20;;;;;;;;;;5587784;25;20557;-80
2024/04/16 09:51:42;;;;;;;5.23;5.03;;;;;;;;;;5573453;25;20227;-79
2024/04/16 09:54:11;;;;;;;4.80;4.60;;;;;;;;;;5595593;25;20534;-80
2024/04/16 09:56:40;;;;;;;5.17;4.97;;;;;;;;;;5593684;25;20227;-78
2024/04/16 09:59:09;;;;;;;5.43;5.13;;;;;;;;;;5596532;25;20462;-79
2024/04/16 10:01:35;;;;;;;4.93;4.73;;;;;;;;;;5582973;25;20470;-79
2024/04/16 10:04:03;;;;;;;4.67;4.47;;;;;;;;;;5590298;25;20557;-80
2024/04/16 10:06:29;;;;;;;5.23;4.93;;;;;;;;;;5602617;25;20234;-79
2024/04/16 10:08:57;;;;;;;4.77;4.47;;;;;;;;;;5599523;25;20452;-78
2024/04/16 10:11:23;;;;;;;4.27;4.07;;;;;;;;;;5579248;25;20273;-81
2024/04/16 10:13:56;;;;;;;4.23;4.03;;;;;;;;;;5594805;25;20554;-80
2024/04/16 10:16:22;;;;;;;4.30;4.10;;;;;;;;;;5586181;25;20456;-80
2024/04/16 10:18:59;;;;;;;3.87;3.77;;;;;;;;;;5574666;25;20471;-79
2024/04/16 10:21:25;;;;;;;3.63;3.50;;;;;;;;;;5588756;25;20265;-79
2024/04/16 10:24:03;;;;;;;4.07;3.87;;;;;;;;;;5599721;25;20458;-79
2024/04/16 10:26:29;;;;;;;3.67;3.57;;;;;;;;;;5603963;25;20458;-82
2024/04/16 10:29:00;;;;;;;3.40;3.30;;;;;;;;;;5596684;25;20450;-80
2024/04/16 10:31:30;;;;;;;4.17;3.97;;;;;;;;;;5593701;25;20466;-77
2024/04/16 10:34:01;;;;;;;4.20;3.90;;;;;;;;;;5585227;25;20516;-75
2024/04/16 10:36:30;;;;;;;4.47;4.27;;;;;;;;;;5590103;25;20859;-73
2024/04/16 10:38:58;;;;;;;3.60;3.50;;;;;;;;;;5598534;25;20454;-72
2024/04/16 10:41:27;;;;;;;4.20;4.00;;;;;;;;;;5591597;25;20469;-75
2024/04/16 10:43:57;;;;;;;4.07;3.87;;;;;;;;;;5578172;25;20470;-81
2024/04/16 10:46:25;;;;;;;4.17;4.07;;;;;;;;;;5586028;25;20462;-79
2024/04/16 10:48:54;;;;;;;4.23;4.07;;;;;;;;;;5581645;25;20523;-81
2024/04/16 10:51:19;;;;;;;4.10;3.90;;;;;;;;;;5578404;25;20465;-81
2024/04/16 10:53:47;;;;;;;4.07;3.87;;;;;;;;;;5588106;25;20538;-81
2024/04/16 10:56:13;;;;;;;3.90;3.80;;;;;;;;;;5585863;25;20669;-82
2024/04/16 10:58:41;;;;;;;5.20;4.13;;;;;;;;;;5590050;25;20466;-81
2024/04/16 11:01:09;;;;;;;4.03;3.83;;;;;;;;;;5589592;25;20226;-79
2024/04/16 11:03:39;;;;;;;4.23;4.10;;;;;;;;;;5599364;25;20536;-81
2024/04/16 11:06:06;;;;;;;4.10;3.90;;;;;;;;;;5593942;25;20524;-80
2024/04/16 11:08:36;;;;;;;3.90;3.80;;;;;;;;;;5598683;25;20458;-81
2024/04/16 11:11:02;;;;;;;3.60;3.50;;;;;;;;;;5582164;25;20471;-80
2024/04/16 11:13:32;;;;;;;3.93;3.83;;;;;;;;;;5586848;25;20458;-81
2024/04/16 11:15:58;;;;;;;3.83;3.63;;;;;;;;;;5579263;25;20505;-80
2024/04/16 11:18:30;;;;;;;3.87;3.67;;;;;;;;;;5564034;25;20466;-81
2024/04/16 11:20:58;;;;;;;3.47;3.27;;;;;;;;;;5598460;25;20467;-82
2024/04/16 11:23:26;;;;;;;4.30;4.10;;;;;;;;;;5590295;25;20463;-82
2024/04/16 11:25:52;;;;;;;4.20;4.10;;;;;;;;;;5598262;25;20474;-82
2024/04/16 11:28:21;;;;;;;3.03;2.93;;;;;;;;;;5595615;25;20911;-82
2024/04/16 11:30:53;;;;;;;3.70;3.50;;;;;;;;;;5594053;25;20560;-82
2024/04/16 11:33:21;;;;;;;2.97;2.87;;;;;;;;;;5601274;25;20450;-80
2024/04/16 11:35:47;;;;;;;2.90;2.80;;;;;;;;;;5582844;25;21290;-82
2024/04/16 11:38:20;;;;;;;3.33;3.23;;;;;;;;;;5592189;25;20450;-81
2024/04/16 11:40:45;;;;;;;3.00;2.90;;;;;;;;;;5588562;25;20643;-81
2024/04/16 11:43:15;;;;;;;2.97;2.87;;;;;;;;;;5583105;25;20456;-79
2024/04/16 11:45:41;;;;;;;2.80;2.70;;;;;;;;;;5597466;25;20240;-81
2024/04/16 11:48:09;;;;;;;3.27;3.07;;;;;;;;;;5596267;25;20458;-82
2024/04/16 11:50:35;;;;;;;3.30;3.20;;;;;;;;;;5588107;25;20624;-81
2024/04/16 11:53:03;;;;;;;3.10;3.00;;;;;;;;;;5583401;25;20552;-81
2024/04/16 11:55:31;;;;;;;3.33;3.17;;;;;;;;;;5599043;25;20310;-79
2024/04/16 11:57:59;;;;;;;4.00;3.80;;;;;;;;;;5591899;25;20459;-81
2024/04/16 12:00:25;;;;;;;4.20;3.90;;;;;;;;;;5593665;25;20515;-81
2024/04/16 12:02:53;;;;;;;4.80;4.60;;;;;;;;;;5591182;25;20902;-81
2024/04/16 12:05:19;;;;;;;4.00;3.80;;;;;;;;;;5585639;25;20262;-82
2024/04/16 12:07:47;;;;;;;5.20;4.90;;;;;;;;;;5596091;25;20460;-81
2024/04/16 12:10:14;;;;;;;4.63;4.43;;;;;;;;;;5583788;25;20298;-82
2024/04/16 12:12:45;;;;;;;5.07;4.57;;;;;;;;;;5579262;25;20581;-81
2024/04/16 12:15:10;;;;;;;4.23;3.93;;;;;;;;;;5588852;25;20462;-81
2024/04/16 12:17:38;;;;;;;4.33;4.13;;;;;;;;;;5578595;25;20526;-82
2024/04/16 12:20:04;;;;;;;4.43;4.23;;;;;;;;;;5595092;25;20280;-81
2024/04/16 12:22:32;;;;;;;4.30;4.10;;;;;;;;;;5587117;25;20468;-81
2024/04/16 12:24:58;;;;;;;4.40;4.20;;;;;;;;;;5586233;25;20526;-82
2024/04/16 12:27:27;;;;;;;5.00;4.80;;;;;;;;;;5570576;25;20468;-83
2024/04/16 12:29:55;;;;;;;4.73;4.53;;;;;;;;;;5591431;25;20876;-81
2024/04/16 12:32:23;;;;;;;4.87;4.67;;;;;;;;;;5586828;25;21089;-82
2024/04/16 12:34:49;;;;;;;4.57;4.37;;;;;;;;;;5593449;25;20482;-81
2024/04/16 12:37:17;;;;;;;4.30;4.10;;;;;;;;;;5595047;25;20536;-80
2024/04/16 12:39:43;;;;;;;3.93;3.73;;;;;;;;;;5588701;25;20234;-80
2024/04/16 12:42:11;;;;;;;4.10;3.90;;;;;;;;;;5582464;25;20446;-80
2024/04/16 12:44:37;;;;;;;3.90;3.60;;;;;;;;;;5582874;25;20272;-82
2024/04/16 12:47:09;;;;;;;4.03;3.73;;;;;;;;;;5592189;25;20473;-79
2024/04/16 12:49:34;;;;;;;3.60;3.40;;;;;;;;;;5585692;25;20588;-77
2024/04/16 12:52:05;;;;;;;4.00;3.80;;;;;;;;;;5605681;25;20442;-77
2024/04/16 12:54:30;;;;;;;6.27;5.00;;;;;;;;;;5585250;25;20458;-79
2024/04/16 12:56:59;;;;;;;5.10;4.90;;;;;;;;;;5582528;25;22958;-79
2024/04/16 12:59:24;;;;;;;4.70;4.50;;;;;;;;;;5595683;25;20290;-81
2024/04/16 13:01:52;;;;;;;4.83;4.63;;;;;;;;;;5595755;25;20466;-80
2024/04/16 13:04:21;;;;;;;5.27;4.97;;;;;;;;;;5589421;25;20316;-79
2024/04/16 13:06:50;;;;;;;5.43;5.13;;;;;;;;;;5601966;25;20566;-80
2024/04/16 13:09:15;;;;;;;5.30;5.10;;;;;;;;;;5583425;25;20522;-79
2024/04/16 13:11:43;;;;;;;5.37;5.07;;;;;;;;;;5579282;25;20455;-79
2024/04/16 13:14:09;;;;;;;5.20;4.90;;;;;;;;;;5596712;25;20272;-80
2024/04/16 13:16:38;;;;;;;5.50;5.20;;;;;;;;;;5591622;25;20466;-80
2024/04/16 13:19:04;;;;;;;6.43;5.93;;;;;;;;;;5601114;25;20526;-81
2024/04/16 13:21:35;;;;;;;5.20;4.90;;;;;;;;;;5591957;25;20573;-81
2024/04/16 13:24:02;;;;;;;7.50;6.90;;;;;;;;;;5593580;25;20289;-80
2024/04/16 13:26:31;;;;;;;5.80;5.40;;;;;;;;;;5586454;25;20462;-78
2024/04/16 13:28:56;;;;;;;5.00;4.70;;;;;;;;;;5590931;25;20451;-81
2024/04/16 13:31:25;;;;;;;5.57;5.27;;;;;;;;;;5601178;25;20571;-81
2024/04/16 13:33:50;;;;;;;5.23;4.93;;;;;;;;;;5597828;25;20283;-80
2024/04/16 13:36:18;;;;;;;5.67;5.00;;;;;;;;;;5580169;25;20468;-79
2024/04/16 13:38:47;;;;;;;5.53;5.20;;;;;;;;;;5579090;25;20751;-79
2024/04/16 13:41:16;;;;;;;5.80;5.40;;;;;;;;;;5578789;25;20467;-80
2024/04/16 13:43:41;;;;;;;5.90;5.60;;;;;;;;;;5584593;25;20465;-79
2024/04/16 13:46:09;;;;;;;5.00;4.80;;;;;;;;;;5578911;25;20473;-80
2024/04/16 13:48:35;;;;;;;5.57;5.27;;;;;;;;;;5587341;25;20241;-79
2024/04/16 13:51:04;;;;;;;5.30;5.00;;;;;;;;;;5584002;25;20452;-77
2024/04/16 13:53:30;;;;;;;5.73;5.33;;;;;;;;;;5567120;25;20461;-80
2024/04/16 13:56:01;;;;;;;5.43;5.13;;;;;;;;;;5596152;25;20458;-81
2024/04/16 13:58:26;;;;;;;5.93;5.53;;;;;;;;;;5590025;25;20278;-79
2024/04/16 14:00:55;;;;;;;6.30;6.00;;;;;;;;;;5600976;25;20865;-78
2024/04/16 14:03:20;;;;;;;5.90;5.60;;;;;;;;;;5592152;25;20299;-79
2024/04/16 14:05:51;;;;;;;5.90;5.60;;;;;;;;;;5601892;25;20471;-80
2024/04/16 14:08:17;;;;;;;6.33;5.93;;;;;;;;;;5597207;25;20277;-80
2024/04/16 14:10:45;;;;;;;6.13;5.83;;;;;;;;;;5588896;25;20474;-80
2024/04/16 14:13:13;;;;;;;6.90;6.47;;;;;;;;;;5584666;25;20361;-80
2024/04/16 14:15:41;;;;;;;6.77;6.47;;;;;;;;;;5572060;25;20515;-81
2024/04/16 14:18:07;;;;;;;6.53;6.23;;;;;;;;;;5598879;25;20459;-82
2024/04/16 14:20:35;;;;;;;5.97;5.67;;;;;;;;;;5601324;25;20509;-81
2024/04/16 14:23:01;;;;;;;6.33;6.03;;;;;;;;;;5575687;25;20232;-80
2024/04/16 14:25:29;;;;;;;6.50;6.00;;;;;;;;;;5595304;25;20539;-81
2024/04/16 14:27:54;;;;;;;6.07;5.77;;;;;;;;;;5595636;25;20231;-80
2024/04/16 14:30:25;;;;;;;5.70;5.40;;;;;;;;;;5566890;25;20608;-79
2024/04/16 14:32:51;;;;;;;6.00;5.60;;;;;;;;;;5574974;25;20231;-79
2024/04/16 14:35:19;;;;;;;5.90;5.50;;;;;;;;;;5599027;25;20529;-78
2024/04/16 14:37:44;;;;;;;6.20;5.80;;;;;;;;;;5604441;25;20272;-79
2024/04/16 14:40:13;;;;;;;6.70;6.30;;;;;;;;;;5590623;25;20460;-80
2024/04/16 14:42:38;;;;;;;6.20;5.80;;;;;;;;;;5593933;25;20243;-80
2024/04/16 14:45:07;;;;;;;7.30;6.87;;;;;;;;;;5588255;25;20528;-81